sensor_id;sensor_type;location;lat;lon;timestamp;P1;durP1;ratioP1;P2;durP2;ratioP2
74677;SDS011;67324;56.326;43.982;2023-04-28T00:00:43;3.47;;;2.90;;
74677;SDS011;67324;56.326;43.982;2023-04-28T00:03:09;3.55;;;3.00;;
74677;SDS011;67324;56.326;43.982;2023-04-28T00:05:35;4.30;;;2.92;;
74677;SDS011;67324;56.326;43.982;2023-04-28T00:08:01;3.97;;;2.67;;
74677;SDS011;67324;56.326;43.982;2023-04-28T00:10:27;3.50;;;2.85;;
74677;SDS011;67324;56.326;43.982;2023-04-28T00:12:55;4.03;;;3.13;;
74677;SDS011;67324;56.326;43.982;2023-04-28T00:15:21;3.70;;;3.03;;
74677;SDS011;67324;56.326;43.982;2023-04-28T00:17:46;3.65;;;2.80;;
74677;SDS011;67324;56.326;43.982;2023-04-28T00:20:12;3.30;;;2.80;;
74677;SDS011;67324;56.326;43.982;2023-04-28T00:22:38;4.15;;;2.90;;
74677;SDS011;67324;56.326;43.982;2023-04-28T00:25:05;3.97;;;3.00;;
74677;SDS011;67324;56.326;43.982;2023-04-28T00:27:34;4.68;;;2.90;;
74677;SDS011;67324;56.326;43.982;2023-04-28T00:30:00;4.18;;;3.20;;
74677;SDS011;67324;56.326;43.982;2023-04-28T00:32:28;3.42;;;2.90;;
74677;SDS011;67324;56.326;43.982;2023-04-28T00:34:55;3.55;;;2.90;;
74677;SDS011;67324;56.326;43.982;2023-04-28T00:37:21;3.97;;;3.03;;
74677;SDS011;67324;56.326;43.982;2023-04-28T00:39:47;3.63;;;2.92;;
74677;SDS011;67324;56.326;43.982;2023-04-28T00:42:13;3.78;;;2.80;;
74677;SDS011;67324;56.326;43.982;2023-04-28T00:44:40;4.55;;;3.22;;
74677;SDS011;67324;56.326;43.982;2023-04-28T00:47:07;3.70;;;3.10;;
74677;SDS011;67324;56.326;43.982;2023-04-28T00:49:34;4.03;;;3.05;;
74677;SDS011;67324;56.326;43.982;2023-04-28T00:52:03;3.22;;;2.78;;
74677;SDS011;67324;56.326;43.982;2023-04-28T00:54:31;3.65;;;2.78;;
74677;SDS011;67324;56.326;43.982;2023-04-28T00:57:00;4.75;;;3.03;;
74677;SDS011;67324;56.326;43.982;2023-04-28T00:59:27;3.50;;;3.03;;
74677;SDS011;67324;56.326;43.982;2023-04-28T01:01:54;3.72;;;2.75;;
74677;SDS011;67324;56.326;43.982;2023-04-28T01:04:21;3.08;;;2.78;;
74677;SDS011;67324;56.326;43.982;2023-04-28T01:06:48;4.22;;;3.13;;
74677;SDS011;67324;56.326;43.982;2023-04-28T01:09:17;3.15;;;2.85;;
74677;SDS011;67324;56.326;43.982;2023-04-28T01:11:43;3.53;;;2.78;;
74677;SDS011;67324;56.326;43.982;2023-04-28T01:16:53;4.10;;;2.78;;
74677;SDS011;67324;56.326;43.982;2023-04-28T01:19:19;3.85;;;2.97;;
74677;SDS011;67324;56.326;43.982;2023-04-28T01:21:50;4.40;;;2.92;;
74677;SDS011;67324;56.326;43.982;2023-04-28T01:24:20;3.22;;;2.60;;
74677;SDS011;67324;56.326;43.982;2023-04-28T01:26:46;3.90;;;3.00;;
74677;SDS011;67324;56.326;43.982;2023-04-28T01:29:11;3.85;;;2.90;;
74677;SDS011;67324;56.326;43.982;2023-04-28T01:31:37;3.90;;;3.03;;
74677;SDS011;67324;56.326;43.982;2023-04-28T01:34:03;4.18;;;3.35;;
74677;SDS011;67324;56.326;43.982;2023-04-28T01:39:14;3.78;;;2.85;;
74677;SDS011;67324;56.326;43.982;2023-04-28T01:41:40;6.28;;;3.30;;
74677;SDS011;67324;56.326;43.982;2023-04-28T01:44:06;4.68;;;3.30;;
74677;SDS011;67324;56.326;43.982;2023-04-28T01:46:32;3.97;;;2.95;;
74677;SDS011;67324;56.326;43.982;2023-04-28T01:48:58;4.07;;;3.00;;
74677;SDS011;67324;56.326;43.982;2023-04-28T01:51:24;4.35;;;3.10;;
74677;SDS011;67324;56.326;43.982;2023-04-28T01:53:51;4.72;;;3.40;;
74677;SDS011;67324;56.326;43.982;2023-04-28T01:56:17;3.83;;;3.15;;
74677;SDS011;67324;56.326;43.982;2023-04-28T01:58:43;3.92;;;2.78;;
74677;SDS011;67324;56.326;43.982;2023-04-28T02:01:10;3.70;;;3.00;;
74677;SDS011;67324;56.326;43.982;2023-04-28T02:03:36;3.70;;;2.75;;
74677;SDS011;67324;56.326;43.982;2023-04-28T02:06:02;4.57;;;3.10;;
74677;SDS011;67324;56.326;43.982;2023-04-28T02:08:29;3.50;;;2.65;;
74677;SDS011;67324;56.326;43.982;2023-04-28T02:10:56;3.15;;;2.63;;
74677;SDS011;67324;56.326;43.982;2023-04-28T02:13:41;4.28;;;2.85;;
74677;SDS011;67324;56.326;43.982;2023-04-28T02:16:07;4.30;;;3.00;;
74677;SDS011;67324;56.326;43.982;2023-04-28T02:18:32;3.65;;;2.83;;
74677;SDS011;67324;56.326;43.982;2023-04-28T02:21:19;4.30;;;2.60;;
74677;SDS011;67324;56.326;43.982;2023-04-28T02:23:45;3.90;;;2.90;;
74677;SDS011;67324;56.326;43.982;2023-04-28T02:26:10;3.20;;;2.90;;
74677;SDS011;67324;56.326;43.982;2023-04-28T02:28:37;3.63;;;3.05;;
74677;SDS011;67324;56.326;43.982;2023-04-28T02:31:04;4.15;;;3.08;;
74677;SDS011;67324;56.326;43.982;2023-04-28T02:33:31;3.78;;;3.00;;
74677;SDS011;67324;56.326;43.982;2023-04-28T02:36:01;3.70;;;2.80;;
74677;SDS011;67324;56.326;43.982;2023-04-28T02:38:28;3.42;;;2.75;;
74677;SDS011;67324;56.326;43.982;2023-04-28T02:41:01;3.53;;;2.83;;
74677;SDS011;67324;56.326;43.982;2023-04-28T02:43:29;3.60;;;2.75;;
74677;SDS011;67324;56.326;43.982;2023-04-28T02:45:55;4.25;;;2.85;;
74677;SDS011;67324;56.326;43.982;2023-04-28T02:48:22;3.42;;;2.80;;
74677;SDS011;67324;56.326;43.982;2023-04-28T02:51:06;3.30;;;2.75;;
74677;SDS011;67324;56.326;43.982;2023-04-28T02:53:33;4.65;;;3.15;;
74677;SDS011;67324;56.326;43.982;2023-04-28T02:55:59;3.50;;;2.72;;
74677;SDS011;67324;56.326;43.982;2023-04-28T02:58:27;3.72;;;2.90;;
74677;SDS011;67324;56.326;43.982;2023-04-28T03:00:52;3.70;;;2.80;;
74677;SDS011;67324;56.326;43.982;2023-04-28T03:03:18;3.22;;;2.75;;
74677;SDS011;67324;56.326;43.982;2023-04-28T03:05:44;3.47;;;2.72;;
74677;SDS011;67324;56.326;43.982;2023-04-28T03:08:10;4.07;;;2.83;;
74677;SDS011;67324;56.326;43.982;2023-04-28T03:10:36;3.78;;;2.92;;
74677;SDS011;67324;56.326;43.982;2023-04-28T03:13:02;3.45;;;3.05;;
74677;SDS011;67324;56.326;43.982;2023-04-28T03:15:29;3.30;;;2.90;;
74677;SDS011;67324;56.326;43.982;2023-04-28T03:17:56;4.32;;;2.97;;
74677;SDS011;67324;56.326;43.982;2023-04-28T03:20:22;4.18;;;3.00;;
74677;SDS011;67324;56.326;43.982;2023-04-28T03:22:48;3.58;;;2.92;;
74677;SDS011;67324;56.326;43.982;2023-04-28T03:25:14;3.83;;;2.75;;
74677;SDS011;67324;56.326;43.982;2023-04-28T03:27:46;4.03;;;2.80;;
74677;SDS011;67324;56.326;43.982;2023-04-28T03:30:12;2.90;;;2.40;;
74677;SDS011;67324;56.326;43.982;2023-04-28T03:32:39;3.90;;;2.75;;
74677;SDS011;67324;56.326;43.982;2023-04-28T03:35:06;3.70;;;2.97;;
74677;SDS011;67324;56.326;43.982;2023-04-28T03:37:32;3.67;;;3.03;;
74677;SDS011;67324;56.326;43.982;2023-04-28T03:40:16;3.70;;;2.78;;
74677;SDS011;67324;56.326;43.982;2023-04-28T03:43:08;3.65;;;2.75;;
74677;SDS011;67324;56.326;43.982;2023-04-28T03:45:40;4.15;;;2.67;;
74677;SDS011;67324;56.326;43.982;2023-04-28T03:48:07;3.17;;;2.65;;
74677;SDS011;67324;56.326;43.982;2023-04-28T03:50:33;3.67;;;2.60;;
74677;SDS011;67324;56.326;43.982;2023-04-28T03:52:59;3.50;;;2.83;;
74677;SDS011;67324;56.326;43.982;2023-04-28T03:55:25;3.20;;;2.50;;
74677;SDS011;67324;56.326;43.982;2023-04-28T03:57:51;3.55;;;2.90;;
74677;SDS011;67324;56.326;43.982;2023-04-28T04:00:17;4.55;;;3.08;;
74677;SDS011;67324;56.326;43.982;2023-04-28T04:02:45;3.50;;;2.92;;
74677;SDS011;67324;56.326;43.982;2023-04-28T04:05:11;3.65;;;2.95;;
74677;SDS011;67324;56.326;43.982;2023-04-28T04:07:37;4.15;;;2.97;;
74677;SDS011;67324;56.326;43.982;2023-04-28T04:10:04;3.08;;;2.75;;
74677;SDS011;67324;56.326;43.982;2023-04-28T04:12:32;3.60;;;2.90;;
74677;SDS011;67324;56.326;43.982;2023-04-28T04:14:58;3.40;;;2.85;;
74677;SDS011;67324;56.326;43.982;2023-04-28T04:17:24;3.55;;;3.03;;
74677;SDS011;67324;56.326;43.982;2023-04-28T04:19:49;2.90;;;2.60;;
74677;SDS011;67324;56.326;43.982;2023-04-28T04:22:15;3.30;;;2.72;;
74677;SDS011;67324;56.326;43.982;2023-04-28T04:24:41;3.53;;;2.70;;
74677;SDS011;67324;56.326;43.982;2023-04-28T04:27:07;3.70;;;2.70;;
74677;SDS011;67324;56.326;43.982;2023-04-28T04:29:36;4.63;;;3.20;;
74677;SDS011;67324;56.326;43.982;2023-04-28T04:34:48;3.28;;;2.80;;
74677;SDS011;67324;56.326;43.982;2023-04-28T04:37:14;3.15;;;2.65;;
74677;SDS011;67324;56.326;43.982;2023-04-28T04:39:58;2.95;;;2.55;;
74677;SDS011;67324;56.326;43.982;2023-04-28T04:42:24;3.47;;;2.55;;
74677;SDS011;67324;56.326;43.982;2023-04-28T04:45:00;3.38;;;2.75;;
74677;SDS011;67324;56.326;43.982;2023-04-28T04:47:28;3.15;;;2.85;;
74677;SDS011;67324;56.326;43.982;2023-04-28T04:49:54;3.53;;;3.15;;
74677;SDS011;67324;56.326;43.982;2023-04-28T04:52:21;4.15;;;3.00;;
74677;SDS011;67324;56.326;43.982;2023-04-28T04:54:49;3.40;;;2.70;;
74677;SDS011;67324;56.326;43.982;2023-04-28T04:57:15;3.65;;;2.60;;
74677;SDS011;67324;56.326;43.982;2023-04-28T05:00:02;3.50;;;2.60;;
74677;SDS011;67324;56.326;43.982;2023-04-28T05:02:30;4.05;;;2.92;;
74677;SDS011;67324;56.326;43.982;2023-04-28T05:04:57;4.05;;;3.15;;
74677;SDS011;67324;56.326;43.982;2023-04-28T05:07:23;3.80;;;2.88;;
74677;SDS011;67324;56.326;43.982;2023-04-28T05:09:51;3.88;;;2.92;;
74677;SDS011;67324;56.326;43.982;2023-04-28T05:12:17;4.07;;;3.00;;
74677;SDS011;67324;56.326;43.982;2023-04-28T05:14:43;3.78;;;3.05;;
74677;SDS011;67324;56.326;43.982;2023-04-28T05:17:09;3.45;;;2.85;;
74677;SDS011;67324;56.326;43.982;2023-04-28T05:19:37;3.72;;;2.90;;
74677;SDS011;67324;56.326;43.982;2023-04-28T05:22:03;4.70;;;3.35;;
74677;SDS011;67324;56.326;43.982;2023-04-28T05:24:30;4.82;;;3.13;;
74677;SDS011;67324;56.326;43.982;2023-04-28T05:26:57;3.58;;;2.83;;
74677;SDS011;67324;56.326;43.982;2023-04-28T05:29:23;3.30;;;2.80;;
74677;SDS011;67324;56.326;43.982;2023-04-28T05:31:49;4.57;;;2.90;;
74677;SDS011;67324;56.326;43.982;2023-04-28T05:34:15;4.50;;;2.90;;
74677;SDS011;67324;56.326;43.982;2023-04-28T05:36:42;3.55;;;2.88;;
74677;SDS011;67324;56.326;43.982;2023-04-28T05:39:10;4.05;;;2.83;;
74677;SDS011;67324;56.326;43.982;2023-04-28T05:41:38;3.58;;;2.78;;
74677;SDS011;67324;56.326;43.982;2023-04-28T05:44:04;3.53;;;2.88;;
74677;SDS011;67324;56.326;43.982;2023-04-28T05:46:31;3.30;;;3.00;;
74677;SDS011;67324;56.326;43.982;2023-04-28T05:48:59;2.92;;;2.42;;
74677;SDS011;67324;56.326;43.982;2023-04-28T05:51:30;3.55;;;2.60;;
74677;SDS011;67324;56.326;43.982;2023-04-28T05:53:55;3.17;;;2.72;;
74677;SDS011;67324;56.326;43.982;2023-04-28T05:56:23;3.67;;;2.70;;
74677;SDS011;67324;56.326;43.982;2023-04-28T05:59:07;3.78;;;3.03;;
74677;SDS011;67324;56.326;43.982;2023-04-28T06:01:34;3.35;;;2.75;;
74677;SDS011;67324;56.326;43.982;2023-04-28T06:04:00;3.67;;;3.22;;
74677;SDS011;67324;56.326;43.982;2023-04-28T06:06:26;3.30;;;2.83;;
74677;SDS011;67324;56.326;43.982;2023-04-28T06:08:52;3.70;;;3.00;;
74677;SDS011;67324;56.326;43.982;2023-04-28T06:11:18;3.80;;;2.90;;
74677;SDS011;67324;56.326;43.982;2023-04-28T06:13:47;3.30;;;2.85;;
74677;SDS011;67324;56.326;43.982;2023-04-28T06:16:16;3.70;;;2.80;;
74677;SDS011;67324;56.326;43.982;2023-04-28T06:18:43;3.00;;;2.47;;
74677;SDS011;67324;56.326;43.982;2023-04-28T06:21:09;3.28;;;2.70;;
74677;SDS011;67324;56.326;43.982;2023-04-28T06:23:34;3.90;;;3.15;;
74677;SDS011;67324;56.326;43.982;2023-04-28T06:26:01;3.63;;;2.80;;
74677;SDS011;67324;56.326;43.982;2023-04-28T06:28:27;3.78;;;3.08;;
74677;SDS011;67324;56.326;43.982;2023-04-28T06:30:53;3.72;;;2.80;;
74677;SDS011;67324;56.326;43.982;2023-04-28T06:33:19;4.43;;;2.88;;
74677;SDS011;67324;56.326;43.982;2023-04-28T06:35:45;3.20;;;2.58;;
74677;SDS011;67324;56.326;43.982;2023-04-28T06:38:29;3.55;;;2.80;;
74677;SDS011;67324;56.326;43.982;2023-04-28T06:40:55;2.60;;;2.40;;
74677;SDS011;67324;56.326;43.982;2023-04-28T06:43:21;3.45;;;2.80;;
74677;SDS011;67324;56.326;43.982;2023-04-28T06:46:10;3.30;;;2.83;;
74677;SDS011;67324;56.326;43.982;2023-04-28T06:48:36;3.50;;;2.92;;
74677;SDS011;67324;56.326;43.982;2023-04-28T06:51:02;3.00;;;2.70;;
74677;SDS011;67324;56.326;43.982;2023-04-28T06:53:29;2.90;;;2.53;;
74677;SDS011;67324;56.326;43.982;2023-04-28T06:55:54;3.88;;;2.72;;
74677;SDS011;67324;56.326;43.982;2023-04-28T06:58:20;3.35;;;2.85;;
74677;SDS011;67324;56.326;43.982;2023-04-28T07:00:47;3.58;;;2.80;;
74677;SDS011;67324;56.326;43.982;2023-04-28T07:03:12;2.92;;;2.63;;
74677;SDS011;67324;56.326;43.982;2023-04-28T07:05:38;4.13;;;3.30;;
74677;SDS011;67324;56.326;43.982;2023-04-28T07:08:04;3.88;;;3.05;;
74677;SDS011;67324;56.326;43.982;2023-04-28T07:10:30;4.10;;;3.08;;
74677;SDS011;67324;56.326;43.982;2023-04-28T07:12:56;2.97;;;2.67;;
74677;SDS011;67324;56.326;43.982;2023-04-28T07:15:23;3.28;;;2.80;;
74677;SDS011;67324;56.326;43.982;2023-04-28T07:17:49;2.88;;;2.60;;
74677;SDS011;67324;56.326;43.982;2023-04-28T07:20:33;3.90;;;2.60;;
74677;SDS011;67324;56.326;43.982;2023-04-28T07:22:59;2.88;;;2.55;;
74677;SDS011;67324;56.326;43.982;2023-04-28T07:25:24;3.30;;;2.80;;
74677;SDS011;67324;56.326;43.982;2023-04-28T07:27:51;3.05;;;2.60;;
74677;SDS011;67324;56.326;43.982;2023-04-28T07:30:18;3.28;;;2.75;;
74677;SDS011;67324;56.326;43.982;2023-04-28T07:32:44;2.95;;;2.65;;
74677;SDS011;67324;56.326;43.982;2023-04-28T07:35:10;2.90;;;2.60;;
74677;SDS011;67324;56.326;43.982;2023-04-28T07:37:36;3.72;;;2.90;;
74677;SDS011;67324;56.326;43.982;2023-04-28T07:40:02;3.50;;;2.80;;
74677;SDS011;67324;56.326;43.982;2023-04-28T07:42:47;3.60;;;2.90;;
74677;SDS011;67324;56.326;43.982;2023-04-28T07:45:13;3.75;;;2.70;;
74677;SDS011;67324;56.326;43.982;2023-04-28T07:47:40;3.20;;;2.80;;
74677;SDS011;67324;56.326;43.982;2023-04-28T07:50:06;4.25;;;2.88;;
74677;SDS011;67324;56.326;43.982;2023-04-28T07:52:33;3.42;;;2.80;;
74677;SDS011;67324;56.326;43.982;2023-04-28T07:54:59;3.45;;;3.00;;
74677;SDS011;67324;56.326;43.982;2023-04-28T07:57:27;3.28;;;2.70;;
74677;SDS011;67324;56.326;43.982;2023-04-28T07:59:53;3.63;;;2.78;;
74677;SDS011;67324;56.326;43.982;2023-04-28T08:02:19;3.40;;;2.83;;
74677;SDS011;67324;56.326;43.982;2023-04-28T08:04:45;2.95;;;2.65;;
74677;SDS011;67324;56.326;43.982;2023-04-28T08:07:12;3.95;;;2.80;;
74677;SDS011;67324;56.326;43.982;2023-04-28T08:09:38;4.13;;;2.88;;
74677;SDS011;67324;56.326;43.982;2023-04-28T08:12:06;3.42;;;2.80;;
74677;SDS011;67324;56.326;43.982;2023-04-28T08:14:31;3.25;;;2.72;;
74677;SDS011;67324;56.326;43.982;2023-04-28T08:16:57;2.85;;;2.55;;
74677;SDS011;67324;56.326;43.982;2023-04-28T08:19:23;3.50;;;2.80;;
74677;SDS011;67324;56.326;43.982;2023-04-28T08:21:49;4.00;;;3.00;;
74677;SDS011;67324;56.326;43.982;2023-04-28T08:24:15;3.05;;;2.72;;
74677;SDS011;67324;56.326;43.982;2023-04-28T08:26:41;3.55;;;2.95;;
74677;SDS011;67324;56.326;43.982;2023-04-28T08:29:06;3.33;;;2.80;;
74677;SDS011;67324;56.326;43.982;2023-04-28T08:31:32;3.38;;;2.72;;
74677;SDS011;67324;56.326;43.982;2023-04-28T08:33:58;3.88;;;2.90;;
74677;SDS011;67324;56.326;43.982;2023-04-28T08:36:24;3.35;;;2.72;;
74677;SDS011;67324;56.326;43.982;2023-04-28T08:39:14;5.13;;;2.70;;
74677;SDS011;67324;56.326;43.982;2023-04-28T08:41:40;3.30;;;2.78;;
74677;SDS011;67324;56.326;43.982;2023-04-28T08:44:09;3.88;;;2.78;;
74677;SDS011;67324;56.326;43.982;2023-04-28T08:46:38;3.03;;;2.65;;
74677;SDS011;67324;56.326;43.982;2023-04-28T08:49:06;2.95;;;2.65;;
74677;SDS011;67324;56.326;43.982;2023-04-28T08:51:43;3.10;;;2.70;;
74677;SDS011;67324;56.326;43.982;2023-04-28T08:54:10;4.60;;;3.22;;
74677;SDS011;67324;56.326;43.982;2023-04-28T08:56:40;3.47;;;2.67;;
74677;SDS011;67324;56.326;43.982;2023-04-28T08:59:09;3.20;;;2.75;;
74677;SDS011;67324;56.326;43.982;2023-04-28T09:01:37;3.25;;;2.95;;
74677;SDS011;67324;56.326;43.982;2023-04-28T09:04:03;3.55;;;3.00;;
74677;SDS011;67324;56.326;43.982;2023-04-28T09:06:38;3.13;;;2.70;;
74677;SDS011;67324;56.326;43.982;2023-04-28T09:12:08;3.25;;;2.80;;
74677;SDS011;67324;56.326;43.982;2023-04-28T09:14:34;3.22;;;2.70;;
74677;SDS011;67324;56.326;43.982;2023-04-28T09:17:01;3.60;;;2.90;;
74677;SDS011;67324;56.326;43.982;2023-04-28T09:19:34;4.05;;;3.08;;
74677;SDS011;67324;56.326;43.982;2023-04-28T09:22:01;4.15;;;3.00;;
74677;SDS011;67324;56.326;43.982;2023-04-28T09:24:29;3.53;;;2.60;;
74677;SDS011;67324;56.326;43.982;2023-04-28T09:27:01;2.67;;;2.42;;
74677;SDS011;67324;56.326;43.982;2023-04-28T09:29:29;3.80;;;2.88;;
74677;SDS011;67324;56.326;43.982;2023-04-28T09:32:14;3.10;;;2.60;;
74677;SDS011;67324;56.326;43.982;2023-04-28T09:34:47;2.65;;;2.45;;
74677;SDS011;67324;56.326;43.982;2023-04-28T09:39:46;3.75;;;2.80;;
74677;SDS011;67324;56.326;43.982;2023-04-28T09:45:07;5.00;;;3.90;;
74677;SDS011;67324;56.326;43.982;2023-04-28T09:47:38;4.82;;;3.83;;
74677;SDS011;67324;56.326;43.982;2023-04-28T09:50:05;5.80;;;4.45;;
74677;SDS011;67324;56.326;43.982;2023-04-28T09:52:37;7.10;;;4.45;;
74677;SDS011;67324;56.326;43.982;2023-04-28T09:55:03;7.03;;;5.13;;
74677;SDS011;67324;56.326;43.982;2023-04-28T09:57:32;6.95;;;5.03;;
74677;SDS011;67324;56.326;43.982;2023-04-28T09:59:59;6.95;;;5.28;;
74677;SDS011;67324;56.326;43.982;2023-04-28T10:02:26;9.10;;;5.43;;
74677;SDS011;67324;56.326;43.982;2023-04-28T10:04:52;8.40;;;5.05;;
74677;SDS011;67324;56.326;43.982;2023-04-28T10:07:19;7.63;;;5.80;;
74677;SDS011;67324;56.326;43.982;2023-04-28T10:09:49;7.50;;;5.30;;
74677;SDS011;67324;56.326;43.982;2023-04-28T10:14:42;6.68;;;5.70;;
74677;SDS011;67324;56.326;43.982;2023-04-28T10:17:15;7.03;;;5.50;;
74677;SDS011;67324;56.326;43.982;2023-04-28T10:19:45;6.60;;;4.80;;
74677;SDS011;67324;56.326;43.982;2023-04-28T10:27:39;6.47;;;5.35;;
74677;SDS011;67324;56.326;43.982;2023-04-28T10:32:40;8.98;;;5.60;;
74677;SDS011;67324;56.326;43.982;2023-04-28T10:40:37;8.40;;;5.20;;
74677;SDS011;67324;56.326;43.982;2023-04-28T10:43:04;9.45;;;5.18;;
74677;SDS011;67324;56.326;43.982;2023-04-28T10:48:22;6.85;;;5.05;;
74677;SDS011;67324;56.326;43.982;2023-04-28T10:56:08;9.35;;;4.80;;
74677;SDS011;67324;56.326;43.982;2023-04-28T10:58:35;7.25;;;4.90;;
74677;SDS011;67324;56.326;43.982;2023-04-28T11:01:27;7.20;;;4.95;;
74677;SDS011;67324;56.326;43.982;2023-04-28T11:03:54;8.18;;;4.90;;
74677;SDS011;67324;56.326;43.982;2023-04-28T11:14:48;5.43;;;4.20;;
74677;SDS011;67324;56.326;43.982;2023-04-28T11:17:14;6.65;;;4.53;;
74677;SDS011;67324;56.326;43.982;2023-04-28T11:19:43;7.25;;;4.68;;
74677;SDS011;67324;56.326;43.982;2023-04-28T11:22:17;6.97;;;4.70;;
74677;SDS011;67324;56.326;43.982;2023-04-28T11:24:55;7.63;;;4.60;;
74677;SDS011;67324;56.326;43.982;2023-04-28T11:27:23;5.95;;;4.18;;
74677;SDS011;67324;56.326;43.982;2023-04-28T11:29:49;6.43;;;4.32;;
74677;SDS011;67324;56.326;43.982;2023-04-28T11:32:34;5.97;;;4.28;;
74677;SDS011;67324;56.326;43.982;2023-04-28T11:35:01;5.20;;;3.83;;
74677;SDS011;67324;56.326;43.982;2023-04-28T11:37:29;6.85;;;3.90;;
74677;SDS011;67324;56.326;43.982;2023-04-28T11:42:58;5.60;;;3.72;;
74677;SDS011;67324;56.326;43.982;2023-04-28T11:45:25;4.88;;;3.80;;
74677;SDS011;67324;56.326;43.982;2023-04-28T11:47:51;6.03;;;4.10;;
74677;SDS011;67324;56.326;43.982;2023-04-28T11:50:34;5.65;;;3.70;;
74677;SDS011;67324;56.326;43.982;2023-04-28T11:53:00;4.93;;;3.95;;
74677;SDS011;67324;56.326;43.982;2023-04-28T11:55:26;6.97;;;4.05;;
74677;SDS011;67324;56.326;43.982;2023-04-28T12:01:05;5.90;;;4.18;;
74677;SDS011;67324;56.326;43.982;2023-04-28T12:03:32;5.38;;;3.50;;
74677;SDS011;67324;56.326;43.982;2023-04-28T12:05:58;4.32;;;3.50;;
74677;SDS011;67324;56.326;43.982;2023-04-28T12:08:27;6.63;;;4.07;;
74677;SDS011;67324;56.326;43.982;2023-04-28T12:11:06;4.78;;;3.83;;
74677;SDS011;67324;56.326;43.982;2023-04-28T12:13:36;5.85;;;3.70;;
74677;SDS011;67324;56.326;43.982;2023-04-28T12:16:03;6.38;;;3.35;;
74677;SDS011;67324;56.326;43.982;2023-04-28T12:18:33;5.13;;;3.70;;
74677;SDS011;67324;56.326;43.982;2023-04-28T12:21:21;7.57;;;3.80;;
74677;SDS011;67324;56.326;43.982;2023-04-28T12:23:47;5.35;;;4.00;;
74677;SDS011;67324;56.326;43.982;2023-04-28T12:26:13;4.75;;;3.45;;
74677;SDS011;67324;56.326;43.982;2023-04-28T12:28:49;3.92;;;3.17;;
74677;SDS011;67324;56.326;43.982;2023-04-28T12:31:15;5.90;;;3.35;;
74677;SDS011;67324;56.326;43.982;2023-04-28T12:33:41;4.57;;;2.95;;
74677;SDS011;67324;56.326;43.982;2023-04-28T12:36:08;6.72;;;3.78;;
74677;SDS011;67324;56.326;43.982;2023-04-28T12:38:35;5.80;;;3.60;;
74677;SDS011;67324;56.326;43.982;2023-04-28T12:41:02;5.10;;;3.30;;
74677;SDS011;67324;56.326;43.982;2023-04-28T12:43:28;4.32;;;3.05;;
74677;SDS011;67324;56.326;43.982;2023-04-28T12:45:54;4.85;;;3.20;;
74677;SDS011;67324;56.326;43.982;2023-04-28T12:48:21;4.93;;;3.38;;
74677;SDS011;67324;56.326;43.982;2023-04-28T12:50:51;5.15;;;3.42;;
74677;SDS011;67324;56.326;43.982;2023-04-28T12:53:17;8.38;;;3.30;;
74677;SDS011;67324;56.326;43.982;2023-04-28T12:55:43;4.65;;;3.33;;
74677;SDS011;67324;56.326;43.982;2023-04-28T12:58:27;5.65;;;3.70;;
74677;SDS011;67324;56.326;43.982;2023-04-28T13:00:54;4.57;;;3.42;;
74677;SDS011;67324;56.326;43.982;2023-04-28T13:03:20;4.00;;;3.15;;
74677;SDS011;67324;56.326;43.982;2023-04-28T13:05:46;5.03;;;3.20;;
74677;SDS011;67324;56.326;43.982;2023-04-28T13:08:31;3.80;;;3.40;;
74677;SDS011;67324;56.326;43.982;2023-04-28T13:10:58;5.40;;;3.40;;
74677;SDS011;67324;56.326;43.982;2023-04-28T13:13:24;5.15;;;3.45;;
74677;SDS011;67324;56.326;43.982;2023-04-28T13:15:49;5.32;;;3.53;;
74677;SDS011;67324;56.326;43.982;2023-04-28T13:18:16;3.38;;;2.90;;
74677;SDS011;67324;56.326;43.982;2023-04-28T13:20:42;9.68;;;3.67;;
74677;SDS011;67324;56.326;43.982;2023-04-28T13:23:07;4.60;;;3.35;;
74677;SDS011;67324;56.326;43.982;2023-04-28T13:25:33;4.68;;;3.28;;
74677;SDS011;67324;56.326;43.982;2023-04-28T13:27:59;5.88;;;3.50;;
74677;SDS011;67324;56.326;43.982;2023-04-28T13:30:25;5.53;;;3.60;;
74677;SDS011;67324;56.326;43.982;2023-04-28T13:32:51;5.50;;;3.85;;
74677;SDS011;67324;56.326;43.982;2023-04-28T13:35:17;4.75;;;3.20;;
74677;SDS011;67324;56.326;43.982;2023-04-28T13:37:43;7.72;;;3.65;;
74677;SDS011;67324;56.326;43.982;2023-04-28T13:40:10;6.57;;;3.22;;
74677;SDS011;67324;56.326;43.982;2023-04-28T13:42:37;6.68;;;3.58;;
74677;SDS011;67324;56.326;43.982;2023-04-28T13:45:02;4.43;;;3.05;;
74677;SDS011;67324;56.326;43.982;2023-04-28T13:47:29;4.07;;;3.40;;
74677;SDS011;67324;56.326;43.982;2023-04-28T13:49:57;4.30;;;3.05;;
74677;SDS011;67324;56.326;43.982;2023-04-28T13:52:24;4.40;;;3.35;;
74677;SDS011;67324;56.326;43.982;2023-04-28T13:54:50;4.50;;;3.10;;
74677;SDS011;67324;56.326;43.982;2023-04-28T13:57:17;4.75;;;3.28;;
74677;SDS011;67324;56.326;43.982;2023-04-28T13:59:43;5.38;;;3.53;;
74677;SDS011;67324;56.326;43.982;2023-04-28T14:02:09;6.30;;;3.22;;
74677;SDS011;67324;56.326;43.982;2023-04-28T14:04:36;5.18;;;3.35;;
74677;SDS011;67324;56.326;43.982;2023-04-28T14:07:01;4.20;;;3.10;;
74677;SDS011;67324;56.326;43.982;2023-04-28T14:09:27;3.65;;;3.03;;
74677;SDS011;67324;56.326;43.982;2023-04-28T14:11:53;4.47;;;3.03;;
74677;SDS011;67324;56.326;43.982;2023-04-28T14:14:22;4.32;;;3.00;;
74677;SDS011;67324;56.326;43.982;2023-04-28T14:16:48;4.60;;;3.03;;
74677;SDS011;67324;56.326;43.982;2023-04-28T14:19:14;4.63;;;3.08;;
74677;SDS011;67324;56.326;43.982;2023-04-28T14:21:42;4.05;;;3.03;;
74677;SDS011;67324;56.326;43.982;2023-04-28T14:24:08;3.53;;;2.85;;
74677;SDS011;67324;56.326;43.982;2023-04-28T14:26:37;4.80;;;3.60;;
74677;SDS011;67324;56.326;43.982;2023-04-28T14:29:03;4.30;;;3.13;;
74677;SDS011;67324;56.326;43.982;2023-04-28T14:31:29;3.78;;;3.10;;
74677;SDS011;67324;56.326;43.982;2023-04-28T14:33:55;4.70;;;3.10;;
74677;SDS011;67324;56.326;43.982;2023-04-28T14:36:21;4.28;;;3.10;;
74677;SDS011;67324;56.326;43.982;2023-04-28T14:38:47;3.22;;;2.88;;
74677;SDS011;67324;56.326;43.982;2023-04-28T14:41:13;4.22;;;3.13;;
74677;SDS011;67324;56.326;43.982;2023-04-28T14:43:39;4.45;;;3.28;;
74677;SDS011;67324;56.326;43.982;2023-04-28T14:46:05;4.15;;;3.30;;
74677;SDS011;67324;56.326;43.982;2023-04-28T14:48:31;4.22;;;2.78;;
74677;SDS011;67324;56.326;43.982;2023-04-28T14:50:57;4.78;;;3.28;;
74677;SDS011;67324;56.326;43.982;2023-04-28T14:53:23;5.05;;;3.28;;
74677;SDS011;67324;56.326;43.982;2023-04-28T14:55:49;4.75;;;3.30;;
74677;SDS011;67324;56.326;43.982;2023-04-28T14:58:15;4.30;;;2.90;;
74677;SDS011;67324;56.326;43.982;2023-04-28T15:00:59;4.78;;;3.33;;
74677;SDS011;67324;56.326;43.982;2023-04-28T15:03:43;4.82;;;2.83;;
74677;SDS011;67324;56.326;43.982;2023-04-28T15:06:09;4.78;;;3.13;;
74677;SDS011;67324;56.326;43.982;2023-04-28T15:08:36;4.57;;;3.20;;
74677;SDS011;67324;56.326;43.982;2023-04-28T15:11:02;4.30;;;2.95;;
74677;SDS011;67324;56.326;43.982;2023-04-28T15:13:28;4.32;;;2.90;;
74677;SDS011;67324;56.326;43.982;2023-04-28T15:15:54;3.47;;;2.92;;
74677;SDS011;67324;56.326;43.982;2023-04-28T15:18:20;4.97;;;3.25;;
74677;SDS011;67324;56.326;43.982;2023-04-28T15:20:46;4.35;;;3.17;;
74677;SDS011;67324;56.326;43.982;2023-04-28T15:23:12;4.38;;;3.10;;
74677;SDS011;67324;56.326;43.982;2023-04-28T15:25:38;4.82;;;3.40;;
74677;SDS011;67324;56.326;43.982;2023-04-28T15:28:04;3.80;;;3.30;;
74677;SDS011;67324;56.326;43.982;2023-04-28T15:30:31;3.63;;;3.13;;
74677;SDS011;67324;56.326;43.982;2023-04-28T15:32:58;4.55;;;3.33;;